createdAt,value
2022-12-11T00:00:44.887Z,22.40
2022-12-11T00:03:15.857Z,20.38
2022-12-11T00:05:43.830Z,22.38
2022-12-11T00:08:10.581Z,22.08
2022-12-11T00:10:38.077Z,22.20
2022-12-11T00:13:05.523Z,24.20
2022-12-11T00:15:32.114Z,22.55
2022-12-11T00:17:58.529Z,22.40
2022-12-11T00:20:24.995Z,23.40
2022-12-11T00:22:51.531Z,18.33
2022-12-11T00:25:18.069Z,18.80
2022-12-11T00:27:46.750Z,17.77
2022-12-11T00:30:14.423Z,20.05
2022-12-11T00:32:40.907Z,19.98
2022-12-11T00:35:07.868Z,23.83
2022-12-11T00:37:34.724Z,23.63
2022-12-11T00:40:01.125Z,22.38
2022-12-11T00:42:27.607Z,20.80
2022-12-11T00:44:54.865Z,22.70
2022-12-11T00:47:21.272Z,22.02
2022-12-11T00:49:49.970Z,21.38
2022-12-11T00:52:17.931Z,25.00
2022-12-11T00:54:44.815Z,21.98
2022-12-11T00:57:11.348Z,26.80
2022-12-11T00:59:37.897Z,18.48
2022-12-11T01:02:04.352Z,22.42
2022-12-11T01:04:30.869Z,21.80
2022-12-11T01:06:57.298Z,21.52
2022-12-11T01:09:42.367Z,28.17
2022-12-11T01:12:08.810Z,24.67
2022-12-11T01:14:35.321Z,22.15
2022-12-11T01:17:01.848Z,22.15
2022-12-11T01:19:28.529Z,18.92
2022-12-11T01:21:54.995Z,22.92
2022-12-11T01:24:21.464Z,21.13
2022-12-11T01:26:47.876Z,24.33
2022-12-11T01:29:14.363Z,22.90
2022-12-11T01:31:41.612Z,26.75
2022-12-11T01:34:08.056Z,20.30
2022-12-11T01:36:34.469Z,20.77
2022-12-11T01:39:00.968Z,22.33
2022-12-11T01:41:27.466Z,21.15
2022-12-11T01:44:19.892Z,26.10
2022-12-11T01:46:46.324Z,22.10
2022-12-11T01:49:15.200Z,24.00
2022-12-11T01:51:56.537Z,23.80
2022-12-11T01:54:24.230Z,20.67
2022-12-11T01:56:53.308Z,21.65
2022-12-11T01:59:24.642Z,22.50
2022-12-11T02:01:58.931Z,23.38
2022-12-11T02:04:26.411Z,19.13
2022-12-11T02:06:53.380Z,19.58
2022-12-11T02:09:24.060Z,20.02
2022-12-11T02:12:05.573Z,20.27
2022-12-11T02:14:50.257Z,18.25
2022-12-11T02:17:26.055Z,21.90
2022-12-11T02:20:03.898Z,20.85
2022-12-11T02:22:54.753Z,20.33
2022-12-11T02:25:42.793Z,24.20
2022-12-11T02:28:35.877Z,19.80
2022-12-11T02:31:08.735Z,18.48
2022-12-11T02:33:45.776Z,29.60
2022-12-11T02:36:16.139Z,23.70
2022-12-11T02:38:50.486Z,20.42
2022-12-11T02:41:20.189Z,19.27
2022-12-11T02:43:49.203Z,19.05
2022-12-11T02:46:19.167Z,21.52
2022-12-11T02:48:48.642Z,20.30
2022-12-11T02:51:18.480Z,20.33
2022-12-11T02:53:46.504Z,20.85
2022-12-11T02:56:21.416Z,22.10
2022-12-11T02:58:58.322Z,18.50
2022-12-11T03:01:25.914Z,21.30
2022-12-11T03:03:53.466Z,21.02
2022-12-11T03:06:24.594Z,22.33
2022-12-11T03:08:52.050Z,22.30
2022-12-11T03:11:19.123Z,22.08
2022-12-11T03:13:45.548Z,20.45
2022-12-11T03:16:29.510Z,24.98
2022-12-11T03:19:14.480Z,20.25
2022-12-11T03:21:45.267Z,24.25
2022-12-11T03:24:38.492Z,22.13
2022-12-11T03:27:33.075Z,28.13
2022-12-11T03:30:04.695Z,21.10
2022-12-11T03:35:25.035Z,21.08
2022-12-11T03:37:53.568Z,19.70
2022-12-11T03:40:22.659Z,21.25
2022-12-11T03:42:52.569Z,24.85
2022-12-11T03:45:22.192Z,19.98
2022-12-11T03:47:52.074Z,21.20
2022-12-11T03:50:20.422Z,19.15
2022-12-11T03:52:48.150Z,20.40
2022-12-11T03:55:17.676Z,22.60
2022-12-11T03:57:44.981Z,23.17
2022-12-11T04:00:15.311Z,20.85
2022-12-11T04:02:42.160Z,24.98
2022-12-11T04:05:09.951Z,23.67
2022-12-11T04:07:36.812Z,20.42
2022-12-11T04:10:05.045Z,20.23
2022-12-11T04:12:31.469Z,22.35
2022-12-11T04:15:03.918Z,20.58
2022-12-11T04:17:51.325Z,21.45
2022-12-11T04:20:37.141Z,23.05
2022-12-11T04:23:31.186Z,20.38
2022-12-11T04:26:12.871Z,19.90
2022-12-11T04:31:10.758Z,20.77
2022-12-11T04:33:37.193Z,21.30
2022-12-11T04:36:03.966Z,19.52
2022-12-11T04:38:30.443Z,16.95
2022-12-11T04:41:01.849Z,23.30
2022-12-11T04:43:28.944Z,22.85
2022-12-11T04:46:15.248Z,22.75
2022-12-11T04:48:42.000Z,25.00
2022-12-11T04:51:09.438Z,21.45
2022-12-11T04:53:36.646Z,24.25
2022-12-11T04:56:07.662Z,22.58
2022-12-11T04:58:35.886Z,20.85
2022-12-11T05:01:10.392Z,23.05
2022-12-11T05:03:37.201Z,21.00
2022-12-11T05:06:03.886Z,21.45
2022-12-11T05:08:30.499Z,22.48
2022-12-11T05:10:59.115Z,20.42
2022-12-11T05:13:26.936Z,20.90
2022-12-11T05:15:53.855Z,20.88
2022-12-11T05:18:20.711Z,20.30
2022-12-11T05:20:59.176Z,19.35
2022-12-11T05:23:26.102Z,19.80
2022-12-11T05:25:57.970Z,21.52
2022-12-11T05:28:26.320Z,20.38
2022-12-11T05:31:01.795Z,22.65
2022-12-11T05:33:29.046Z,21.52
2022-12-11T05:35:55.665Z,19.33
2022-12-11T05:38:22.655Z,20.45
2022-12-11T05:41:00.807Z,21.75
2022-12-11T05:43:28.952Z,20.88
2022-12-11T05:45:56.396Z,25.67
2022-12-11T05:48:23.211Z,48.97
2022-12-11T05:51:00.488Z,41.47
2022-12-11T05:53:27.723Z,30.75
2022-12-11T05:55:54.376Z,46.42
2022-12-11T05:58:21.176Z,33.97
2022-12-11T06:00:48.268Z,24.50
2022-12-11T06:03:15.575Z,38.83
2022-12-11T06:05:42.980Z,23.23
2022-12-11T06:08:09.727Z,22.08
2022-12-11T06:10:36.293Z,24.13
2022-12-11T06:13:03.517Z,20.05
2022-12-11T06:15:29.936Z,22.55
2022-12-11T06:17:56.372Z,19.50
2022-12-11T06:20:22.794Z,19.17
2022-12-11T06:22:49.200Z,20.67
2022-12-11T06:25:15.672Z,18.98
2022-12-11T06:27:42.061Z,19.42
2022-12-11T06:30:09.061Z,15.27
2022-12-11T06:32:35.458Z,18.98
2022-12-11T06:35:01.890Z,16.38
2022-12-11T06:37:28.294Z,19.92
2022-12-11T06:39:54.731Z,16.63
2022-12-11T06:42:21.151Z,17.75
2022-12-11T06:44:47.949Z,19.13
2022-12-11T06:47:14.374Z,19.10
2022-12-11T06:49:40.859Z,17.48
2022-12-11T06:52:07.296Z,15.18
2022-12-11T06:54:33.775Z,16.05
2022-12-11T06:57:00.160Z,16.75
2022-12-11T06:59:26.593Z,17.48
2022-12-11T07:01:53.177Z,16.83
2022-12-11T07:04:24.611Z,19.10
2022-12-11T07:06:51.626Z,19.23
2022-12-11T07:09:19.585Z,26.77
2022-12-11T07:11:46.040Z,18.48
2022-12-11T07:14:12.442Z,25.73
2022-12-11T07:16:38.933Z,53.17
2022-12-11T07:19:05.488Z,64.45
2022-12-11T07:21:32.184Z,28.38
2022-12-11T07:23:59.007Z,86.18
2022-12-11T07:26:25.812Z,64.55
2022-12-11T07:28:52.541Z,34.63
2022-12-11T07:31:25.379Z,34.25
2022-12-11T07:33:56.407Z,32.20
2022-12-11T07:36:24.281Z,26.98
2022-12-11T07:38:51.215Z,26.02
2022-12-11T07:41:17.947Z,27.17
2022-12-11T07:43:45.358Z,36.30
2022-12-11T07:46:17.653Z,32.33
2022-12-11T07:48:46.615Z,35.78
2022-12-11T07:51:25.016Z,33.17
2022-12-11T07:53:51.461Z,21.95
2022-12-11T07:56:19.033Z,20.48
2022-12-11T07:58:46.278Z,25.45
2022-12-11T08:01:13.688Z,40.88
2022-12-11T08:03:40.747Z,23.75
2022-12-11T08:06:08.026Z,22.42
2022-12-11T08:08:34.633Z,25.45
2022-12-11T08:11:05.330Z,24.75
2022-12-11T08:13:32.734Z,34.07
2022-12-11T08:15:59.386Z,28.77
2022-12-11T08:18:26.158Z,25.52
2022-12-11T08:20:52.630Z,28.25
2022-12-11T08:23:19.034Z,36.22
2022-12-11T08:25:45.473Z,24.23
2022-12-11T08:28:11.889Z,30.73
2022-12-11T08:30:40.139Z,28.15
2022-12-11T08:33:06.926Z,28.83
2022-12-11T08:35:33.644Z,26.85
2022-12-11T08:38:00.090Z,25.35
2022-12-11T08:40:26.515Z,23.65
2022-12-11T08:42:52.936Z,25.05
2022-12-11T08:45:19.334Z,22.83
2022-12-11T08:47:45.761Z,20.20
2022-12-11T08:50:12.220Z,21.13
2022-12-11T08:52:38.713Z,22.75
2022-12-11T08:55:05.601Z,20.52
2022-12-11T08:57:32.142Z,22.48
2022-12-11T08:59:58.643Z,20.10
2022-12-11T09:02:25.143Z,22.75
2022-12-11T09:04:51.680Z,21.98
2022-12-11T09:07:18.143Z,22.30
2022-12-11T09:09:47.601Z,20.15
2022-12-11T09:12:14.059Z,18.92
2022-12-11T09:14:40.495Z,16.70
2022-12-11T09:17:07.279Z,16.80
2022-12-11T09:19:33.711Z,16.67
2022-12-11T09:22:00.103Z,16.08
2022-12-11T09:24:26.555Z,20.00
2022-12-11T09:26:54.505Z,18.42
2022-12-11T09:29:20.912Z,15.60
2022-12-11T09:31:48.992Z,18.08
2022-12-11T09:34:15.730Z,18.30
2022-12-11T09:36:44.182Z,10.95
2022-12-11T09:39:12.240Z,14.85
2022-12-11T09:42:03.395Z,16.13
2022-12-11T09:44:51.140Z,10.18
2022-12-11T09:47:27.778Z,9.50
2022-12-11T09:50:03.586Z,10.13
2022-12-11T09:53:01.045Z,10.50
2022-12-11T09:55:49.709Z,10.55
2022-12-11T09:58:34.785Z,17.80
2022-12-11T10:01:07.677Z,27.75
2022-12-11T10:04:04.160Z,23.20
2022-12-11T10:06:37.345Z,35.22
2022-12-11T10:09:25.982Z,185.20
2022-12-11T10:12:42.627Z,335.30
2022-12-11T10:15:12.614Z,178.30
2022-12-11T10:17:42.099Z,227.07
2022-12-11T10:20:23.911Z,320.45
2022-12-11T10:22:52.693Z,386.02
2022-12-11T10:25:22.332Z,225.73
2022-12-11T10:27:48.910Z,127.43
2022-12-11T10:30:24.520Z,276.63
2022-12-11T10:33:04.533Z,190.73
2022-12-11T10:35:41.927Z,40.67
2022-12-11T10:38:16.569Z,33.35
2022-12-11T10:40:51.956Z,13.13
2022-12-11T10:43:18.985Z,9.40
2022-12-11T10:45:53.933Z,7.30
2022-12-11T10:48:21.977Z,6.38
2022-12-11T10:51:15.195Z,6.78
2022-12-11T10:53:44.283Z,5.45
2022-12-11T10:56:11.998Z,4.88
2022-12-11T10:58:47.177Z,6.05
2022-12-11T11:01:21.968Z,4.28
2022-12-11T11:03:55.600Z,5.82
2022-12-11T11:06:23.513Z,4.32
2022-12-11T11:08:53.045Z,5.68
2022-12-11T11:11:33.807Z,6.25
2022-12-11T11:14:13.452Z,5.78
2022-12-11T11:16:42.543Z,5.57
2022-12-11T11:19:17.703Z,4.13
2022-12-11T11:21:50.623Z,4.85
2022-12-11T11:24:46.244Z,4.50
2022-12-11T11:27:21.964Z,4.88
2022-12-11T11:29:56.661Z,4.05
2022-12-11T11:32:33.270Z,3.80
2022-12-11T11:35:26.609Z,4.53
2022-12-11T11:38:17.493Z,5.60
2022-12-11T11:40:58.148Z,3.93
2022-12-11T11:43:42.691Z,5.78
2022-12-11T11:46:12.015Z,4.53
2022-12-11T11:48:56.440Z,4.63
2022-12-11T11:51:41.603Z,4.20
2022-12-11T11:54:22.336Z,3.70
2022-12-11T11:56:52.718Z,2.87
2022-12-11T11:59:36.147Z,3.63
2022-12-11T12:02:03.044Z,3.58
2022-12-11T12:04:34.860Z,4.18
2022-12-11T12:07:38.788Z,7.15
2022-12-11T12:10:20.555Z,5.72
2022-12-11T12:12:52.793Z,9.95
2022-12-11T12:15:34.736Z,4.05
2022-12-11T12:18:25.894Z,5.03
2022-12-11T12:20:55.312Z,4.45
2022-12-11T12:23:49.087Z,5.47
2022-12-11T12:26:37.323Z,4.35
2022-12-11T12:29:13.063Z,4.07
2022-12-11T12:32:13.135Z,4.28
2022-12-11T12:34:49.809Z,4.22
2022-12-11T12:37:31.567Z,1.92
2022-12-11T12:40:31.821Z,3.05
2022-12-11T12:43:14.400Z,2.97
2022-12-11T12:46:14.649Z,3.45
2022-12-11T12:48:41.549Z,2.55
2022-12-11T12:51:13.269Z,4.00
2022-12-11T12:53:41.444Z,3.65
2022-12-11T12:56:11.459Z,3.30
2022-12-11T12:58:44.749Z,3.55
2022-12-11T13:01:24.444Z,5.15
2022-12-11T13:03:51.179Z,4.45
2022-12-11T13:06:57.281Z,4.75
2022-12-11T13:09:27.831Z,4.10
2022-12-11T13:11:58.004Z,5.07
2022-12-11T13:14:28.510Z,3.92
2022-12-11T13:17:21.175Z,4.28
2022-12-11T13:19:50.042Z,5.55
2022-12-11T13:22:16.398Z,3.65
2022-12-11T13:24:46.890Z,4.57
2022-12-11T13:27:36.568Z,6.05
2022-12-11T13:30:15.263Z,4.40
2022-12-11T13:32:49.485Z,4.63
2022-12-11T13:35:18.307Z,3.60
2022-12-11T13:37:47.267Z,4.18
2022-12-11T13:40:27.478Z,3.53
2022-12-11T13:43:02.925Z,7.47
2022-12-11T13:45:55.940Z,4.13
2022-12-11T13:48:27.486Z,3.95
2022-12-11T13:53:22.636Z,5.75
2022-12-11T13:56:07.556Z,5.22
2022-12-11T13:58:35.483Z,6.75
2022-12-11T14:01:20.074Z,4.43
2022-12-11T14:04:07.922Z,6.30
2022-12-11T14:06:39.885Z,10.45
2022-12-11T14:09:08.244Z,5.05
2022-12-11T14:11:38.479Z,7.45
2022-12-11T14:14:09.040Z,5.03
2022-12-11T14:16:35.682Z,5.70
2022-12-11T14:19:09.930Z,10.30
2022-12-11T14:21:37.484Z,8.38
2022-12-11T14:24:06.477Z,7.80
2022-12-11T14:26:34.855Z,4.55
2022-12-11T14:29:02.705Z,5.82
2022-12-11T14:31:37.422Z,5.07
2022-12-11T14:34:17.720Z,5.65
2022-12-11T14:36:47.772Z,5.88
2022-12-11T14:39:20.837Z,6.20
2022-12-11T14:41:57.991Z,6.55
2022-12-11T14:44:27.176Z,8.43
2022-12-11T14:46:59.944Z,6.35
2022-12-11T14:49:29.451Z,7.45
2022-12-11T14:51:58.855Z,8.43
2022-12-11T14:54:30.868Z,8.48
2022-12-11T14:56:58.578Z,7.80
2022-12-11T14:59:31.611Z,8.25
2022-12-11T15:02:20.580Z,6.35
2022-12-11T15:05:01.278Z,7.03
2022-12-11T15:07:27.722Z,6.38
2022-12-11T15:09:54.132Z,6.85
2022-12-11T15:12:20.554Z,8.10
2022-12-11T15:14:55.900Z,8.20
2022-12-11T15:17:23.926Z,10.38
2022-12-11T15:19:57.267Z,7.47
2022-12-11T15:22:30.930Z,8.30
2022-12-11T15:24:57.982Z,8.27
2022-12-11T15:27:38.790Z,6.60
2022-12-11T15:30:26.451Z,16.80
2022-12-11T15:33:03.300Z,26.90
2022-12-11T15:35:29.759Z,33.35
2022-12-11T15:37:59.321Z,11.90
2022-12-11T15:40:27.061Z,12.32
2022-12-11T15:42:54.995Z,8.05
2022-12-11T15:45:25.189Z,6.60
2022-12-11T15:47:52.243Z,6.80
2022-12-11T15:50:22.997Z,9.18
2022-12-11T15:52:50.984Z,12.52
2022-12-11T15:55:18.201Z,6.78
2022-12-11T15:58:03.203Z,10.77
2022-12-11T16:00:30.459Z,9.05
2022-12-11T16:02:58.170Z,9.45
2022-12-11T16:05:25.885Z,8.95
2022-12-11T16:07:54.563Z,9.65
2022-12-11T16:10:22.108Z,9.90
2022-12-11T16:12:48.657Z,9.50
2022-12-11T16:15:22.847Z,9.68
2022-12-11T16:17:49.787Z,7.93
2022-12-11T16:20:16.245Z,7.63
2022-12-11T16:22:42.639Z,7.38
2022-12-11T16:25:09.213Z,7.20
2022-12-11T16:27:35.877Z,8.88
2022-12-11T16:30:02.415Z,7.82
2022-12-11T16:32:28.848Z,8.00
2022-12-11T16:34:59.861Z,10.15
2022-12-11T16:37:26.302Z,10.98
2022-12-11T16:39:52.709Z,11.73
2022-12-11T16:42:19.140Z,11.55
2022-12-11T16:44:45.644Z,17.15
2022-12-11T16:47:12.026Z,14.07
2022-12-11T16:49:38.461Z,17.30
2022-12-11T16:52:05.596Z,16.50
2022-12-11T16:54:31.991Z,14.35
2022-12-11T16:56:58.548Z,16.00
2022-12-11T16:59:24.975Z,19.42
2022-12-11T17:01:54.448Z,18.08
2022-12-11T17:04:20.886Z,23.40
2022-12-11T17:06:47.373Z,28.08
2022-12-11T17:09:13.777Z,22.05
2022-12-11T17:11:40.166Z,28.05
2022-12-11T17:14:06.633Z,28.73
2022-12-11T17:16:33.935Z,30.83
2022-12-11T17:19:00.678Z,26.83
2022-12-11T17:21:27.196Z,24.05
2022-12-11T17:23:53.627Z,23.08
2022-12-11T17:26:20.311Z,22.70
2022-12-11T17:28:46.830Z,24.33
2022-12-11T17:31:16.046Z,22.15
2022-12-11T17:33:42.891Z,18.85
2022-12-11T17:36:14.011Z,15.25
2022-12-11T17:38:40.716Z,13.07
2022-12-11T17:41:08.636Z,12.55
2022-12-11T17:43:35.325Z,11.35
2022-12-11T17:46:02.088Z,15.00
2022-12-11T17:48:28.514Z,15.85
2022-12-11T17:50:55.196Z,14.77
2022-12-11T17:53:22.981Z,12.00
2022-12-11T17:55:51.572Z,10.70
2022-12-11T17:58:22.012Z,10.20
2022-12-11T18:00:54.094Z,13.43
2022-12-11T18:03:21.237Z,16.33
2022-12-11T18:05:50.415Z,18.55
2022-12-11T18:08:22.360Z,21.52
2022-12-11T18:10:48.806Z,21.48
2022-12-11T18:13:15.400Z,37.53
2022-12-11T18:15:41.941Z,39.35
2022-12-11T18:18:09.180Z,32.42
2022-12-11T18:20:37.327Z,27.17
2022-12-11T18:23:04.526Z,17.00
2022-12-11T18:25:31.671Z,17.90
2022-12-11T18:27:59.493Z,18.10
2022-12-11T18:30:26.433Z,20.30
2022-12-11T18:32:52.847Z,20.85
2022-12-11T18:35:19.477Z,18.05
2022-12-11T18:37:46.169Z,19.88
2022-12-11T18:40:12.654Z,17.60
2022-12-11T18:42:39.109Z,15.85
2022-12-11T18:45:06.906Z,15.57
2022-12-11T18:47:33.719Z,23.67
2022-12-11T18:50:07.120Z,20.27
2022-12-11T18:52:34.411Z,17.80
2022-12-11T18:55:00.882Z,20.20
2022-12-11T18:57:27.434Z,19.83
2022-12-11T18:59:53.985Z,13.68
2022-12-11T19:02:21.873Z,20.70
2022-12-11T19:04:48.376Z,22.50
2022-12-11T19:07:14.790Z,20.08
2022-12-11T19:09:46.237Z,21.60
2022-12-11T19:12:14.455Z,39.75
2022-12-11T19:14:40.876Z,59.53
2022-12-11T19:17:07.408Z,56.55
2022-12-11T19:19:34.062Z,33.22
2022-12-11T19:22:00.528Z,21.48
2022-12-11T19:24:27.314Z,18.55
2022-12-11T19:26:53.791Z,19.35
2022-12-11T19:29:33.883Z,19.38
2022-12-11T19:32:04.387Z,18.58
2022-12-11T19:34:30.916Z,16.75
2022-12-11T19:36:57.972Z,15.70
2022-12-11T19:39:24.446Z,15.30
2022-12-11T19:41:50.937Z,14.80
2022-12-11T19:44:17.688Z,14.93
2022-12-11T19:46:44.354Z,12.55
2022-12-11T19:49:11.528Z,13.60
2022-12-11T19:51:41.248Z,11.75
2022-12-11T19:54:09.878Z,13.77
2022-12-11T19:56:36.612Z,15.07
2022-12-11T19:59:05.534Z,13.63
2022-12-11T20:01:34.612Z,13.57
2022-12-11T20:04:04.157Z,15.00
2022-12-11T20:06:32.414Z,15.73
2022-12-11T20:08:59.996Z,13.77
2022-12-11T20:11:27.083Z,15.70
2022-12-11T20:13:55.481Z,17.95
2022-12-11T20:16:39.478Z,16.85
2022-12-11T20:19:08.997Z,15.50
2022-12-11T20:21:35.562Z,13.05
2022-12-11T20:24:02.009Z,10.02
2022-12-11T20:26:29.835Z,8.73
2022-12-11T20:28:56.463Z,9.10
2022-12-11T20:31:25.070Z,10.75
2022-12-11T20:33:52.907Z,12.75
2022-12-11T20:36:21.636Z,15.25
2022-12-11T20:38:49.023Z,16.13
2022-12-11T20:41:17.962Z,11.82
2022-12-11T20:43:44.568Z,8.68
2022-12-11T20:46:13.243Z,12.57
2022-12-11T20:48:42.389Z,11.77
2022-12-11T20:51:10.865Z,10.95
2022-12-11T20:53:38.418Z,12.48
2022-12-11T20:56:13.261Z,14.43
2022-12-11T20:58:40.455Z,15.00
2022-12-11T21:01:07.040Z,7.18
2022-12-11T21:03:40.400Z,6.88
2022-12-11T21:06:09.611Z,10.35
2022-12-11T21:08:36.103Z,9.77
2022-12-11T21:11:05.655Z,8.80
2022-12-11T21:13:32.091Z,7.25
2022-12-11T21:16:04.923Z,7.13
2022-12-11T21:18:31.440Z,8.13
2022-12-11T21:20:57.911Z,14.25
2022-12-11T21:23:24.810Z,13.00
2022-12-11T21:25:52.376Z,9.10
2022-12-11T21:28:19.061Z,13.18
2022-12-11T21:30:45.674Z,17.25
2022-12-11T21:33:12.193Z,11.55
2022-12-11T21:35:38.642Z,15.60
2022-12-11T21:38:05.163Z,15.43
2022-12-11T21:40:31.646Z,14.52
2022-12-11T21:42:58.084Z,13.65
2022-12-11T21:45:59.789Z,20.30
2022-12-11T21:48:11.697Z,15.48
2022-12-11T21:50:38.200Z,18.55
2022-12-11T21:53:04.695Z,16.55
2022-12-11T21:55:31.179Z,13.90
2022-12-11T21:57:57.584Z,16.73
2022-12-11T22:00:24.625Z,13.98
2022-12-11T22:02:51.242Z,12.77
2022-12-11T22:05:17.713Z,14.68
2022-12-11T22:07:44.103Z,13.95
2022-12-11T22:10:11.052Z,13.05
2022-12-11T22:12:37.478Z,12.35
2022-12-11T22:15:04.424Z,12.32
2022-12-11T22:17:32.193Z,12.20
2022-12-11T22:19:58.731Z,13.55
2022-12-11T22:22:25.142Z,12.25
2022-12-11T22:24:51.726Z,12.95
2022-12-11T22:27:23.467Z,11.85
2022-12-11T22:29:50.388Z,11.95
2022-12-11T22:32:16.856Z,11.45
2022-12-11T22:34:43.258Z,12.35
2022-12-11T22:37:09.666Z,11.57
2022-12-11T22:39:36.186Z,15.75
2022-12-11T22:42:02.703Z,12.38
2022-12-11T22:44:29.136Z,13.20
2022-12-11T22:46:55.593Z,13.93
2022-12-11T22:49:22.001Z,12.25
2022-12-11T22:51:49.003Z,13.25
2022-12-11T22:54:15.480Z,14.45
2022-12-11T22:56:42.016Z,14.35
2022-12-11T22:59:08.670Z,13.43
2022-12-11T23:01:35.153Z,13.93
2022-12-11T23:04:01.867Z,15.50
2022-12-11T23:06:28.315Z,14.30
2022-12-11T23:08:58.595Z,13.75
2022-12-11T23:11:28.415Z,15.48
2022-12-11T23:13:56.807Z,11.70
2022-12-11T23:16:25.094Z,13.40
2022-12-11T23:18:51.542Z,14.82
2022-12-11T23:21:18.017Z,12.57
2022-12-11T23:23:45.296Z,13.68
2022-12-11T23:26:13.152Z,15.57
2022-12-11T23:28:40.148Z,13.43
2022-12-11T23:31:07.509Z,14.38
2022-12-11T23:33:34.057Z,13.73
2022-12-11T23:36:00.511Z,15.85
2022-12-11T23:38:27.215Z,12.38
2022-12-11T23:40:54.020Z,16.90
2022-12-11T23:43:20.604Z,16.20
2022-12-11T23:45:47.091Z,17.15
2022-12-11T23:48:13.836Z,17.20
2022-12-11T23:50:42.117Z,15.35
2022-12-11T23:53:09.015Z,16.55
2022-12-11T23:55:35.947Z,22.33
2022-12-11T23:58:02.368Z,14.77
